createdAt,value
2024-04-21T00:01:20.972Z,7.37
2024-04-21T00:03:48.213Z,7.32
2024-04-21T00:06:15.220Z,7.33
2024-04-21T00:08:41.840Z,7.30
2024-04-21T00:11:08.587Z,7.36
2024-04-21T00:13:35.416Z,7.36
2024-04-21T00:16:02.166Z,7.33
2024-04-21T00:18:29.044Z,7.23
2024-04-21T00:20:55.813Z,7.25
2024-04-21T00:23:22.391Z,7.23
2024-04-21T00:26:01.481Z,7.23
2024-04-21T00:28:31.285Z,7.22
2024-04-21T00:30:58.498Z,7.24
2024-04-21T00:33:25.287Z,7.04
2024-04-21T00:35:51.953Z,7.15
2024-04-21T00:38:18.540Z,7.16
2024-04-21T00:40:45.191Z,7.17
2024-04-21T00:43:12.034Z,7.14
2024-04-21T00:45:44.553Z,7.11
2024-04-21T00:48:12.912Z,7.07
2024-04-21T00:50:41.602Z,7.18
2024-04-21T00:53:09.468Z,7.07
2024-04-21T00:55:36.189Z,7.07
2024-04-21T00:58:03.945Z,7.19
2024-04-21T01:00:30.979Z,7.01
2024-04-21T01:02:57.648Z,7.21
2024-04-21T01:05:24.240Z,7.15
2024-04-21T01:07:50.885Z,7.14
2024-04-21T01:10:17.637Z,7.14
2024-04-21T01:12:44.484Z,7.10
2024-04-21T01:15:11.179Z,7.20
2024-04-21T01:17:38.592Z,7.18
2024-04-21T01:20:05.733Z,7.21
2024-04-21T01:22:32.292Z,7.17
2024-04-21T01:24:58.927Z,7.07
2024-04-21T01:27:25.671Z,7.04
2024-04-21T01:29:52.240Z,7.12
2024-04-21T01:32:20.334Z,7.05
2024-04-21T01:34:47.300Z,6.88
2024-04-21T01:37:17.659Z,7.01
2024-04-21T01:39:44.416Z,6.99
2024-04-21T01:42:11.045Z,7.03
2024-04-21T01:44:37.608Z,6.94
2024-04-21T01:47:04.498Z,6.89
2024-04-21T01:49:31.125Z,6.98
2024-04-21T01:51:57.729Z,6.93
2024-04-21T01:54:24.327Z,6.97
2024-04-21T01:56:52.087Z,6.90
2024-04-21T01:59:18.967Z,6.78
2024-04-21T02:01:45.676Z,6.82
2024-04-21T02:04:12.368Z,6.85
2024-04-21T02:06:40.330Z,6.63
2024-04-21T02:09:07.096Z,6.75
2024-04-21T02:11:33.630Z,6.78
2024-04-21T02:14:00.174Z,6.79
2024-04-21T02:16:26.882Z,6.74
2024-04-21T02:18:53.448Z,6.80
2024-04-21T02:21:20.085Z,6.79
2024-04-21T02:23:49.820Z,6.82
2024-04-21T02:26:16.402Z,6.92
2024-04-21T02:28:43.396Z,6.86
2024-04-21T02:31:10.309Z,6.80
2024-04-21T02:33:38.314Z,6.79
2024-04-21T02:36:05.546Z,6.79
2024-04-21T02:38:32.675Z,6.71
2024-04-21T02:40:59.343Z,6.75
2024-04-21T02:43:25.945Z,6.65
2024-04-21T02:45:52.857Z,6.67
2024-04-21T02:48:19.457Z,6.69
2024-04-21T02:50:46.490Z,6.60
2024-04-21T02:53:13.213Z,6.54
2024-04-21T02:55:43.684Z,6.49
2024-04-21T02:58:10.381Z,6.47
2024-04-21T03:00:40.352Z,6.44
2024-04-21T03:03:07.275Z,6.36
2024-04-21T03:05:34.058Z,6.28
2024-04-21T03:08:00.949Z,6.32
2024-04-21T03:10:27.665Z,6.36
2024-04-21T03:12:54.520Z,6.32
2024-04-21T03:15:21.186Z,6.15
2024-04-21T03:17:47.842Z,5.98
2024-04-21T03:20:14.813Z,6.04
2024-04-21T03:22:41.400Z,6.18
2024-04-21T03:25:08.075Z,6.06
2024-04-21T03:27:34.856Z,6.01
2024-04-21T03:30:01.668Z,6.14
2024-04-21T03:32:28.374Z,6.07
2024-04-21T03:34:57.271Z,6.16
2024-04-21T03:37:23.968Z,6.11
2024-04-21T03:39:50.683Z,5.99
2024-04-21T03:42:17.676Z,6.08
2024-04-21T03:44:44.444Z,6.12
2024-04-21T03:47:11.054Z,6.15
2024-04-21T03:49:37.660Z,6.07
2024-04-21T03:52:04.625Z,5.87
2024-04-21T03:54:31.357Z,5.95
2024-04-21T03:56:58.095Z,6.03
2024-04-21T03:59:24.699Z,5.84
2024-04-21T04:01:51.400Z,5.95
2024-04-21T04:04:18.161Z,6.02
2024-04-21T04:06:44.795Z,6.06
2024-04-21T04:09:11.379Z,5.92
2024-04-21T04:11:38.375Z,5.89
2024-04-21T04:14:05.022Z,5.99
2024-04-21T04:16:31.588Z,5.95
2024-04-21T04:18:58.282Z,5.88
2024-04-21T04:21:25.070Z,6.00
2024-04-21T04:23:51.973Z,5.89
2024-04-21T04:26:18.530Z,5.84
2024-04-21T04:28:45.123Z,6.00
2024-04-21T04:31:11.915Z,6.03
2024-04-21T04:33:38.575Z,5.98
2024-04-21T04:36:05.621Z,5.92
2024-04-21T04:38:32.186Z,5.98
2024-04-21T04:40:58.790Z,5.91
2024-04-21T04:43:25.433Z,5.93
2024-04-21T04:45:52.041Z,5.96
2024-04-21T04:48:18.878Z,5.90
2024-04-21T04:50:45.502Z,5.86
2024-04-21T04:53:12.066Z,5.82
2024-04-21T04:55:38.727Z,6.00
2024-04-21T04:58:05.426Z,6.08
2024-04-21T05:00:32.016Z,6.04
2024-04-21T05:02:58.650Z,5.93
2024-04-21T05:05:25.302Z,6.01
2024-04-21T05:07:51.892Z,6.02
2024-04-21T05:10:18.562Z,5.99
2024-04-21T05:12:47.379Z,5.76
2024-04-21T05:15:14.016Z,5.88
2024-04-21T05:17:40.698Z,6.02
2024-04-21T05:20:08.207Z,5.96
2024-04-21T05:22:35.894Z,5.79
2024-04-21T05:25:02.551Z,5.87
2024-04-21T05:27:30.890Z,5.96
2024-04-21T05:29:58.685Z,5.92
2024-04-21T05:32:27.690Z,6.04
2024-04-21T05:34:54.375Z,6.03
2024-04-21T05:37:21.236Z,6.02
2024-04-21T05:39:47.880Z,6.00
2024-04-21T05:42:14.537Z,5.93
2024-04-21T05:44:41.091Z,5.90
2024-04-21T05:47:07.683Z,6.09
2024-04-21T05:49:34.301Z,6.12
2024-04-21T05:52:00.893Z,6.27
2024-04-21T05:54:30.092Z,6.44
2024-04-21T05:56:56.689Z,6.46
2024-04-21T05:59:27.401Z,6.69
2024-04-21T06:01:55.446Z,6.49
2024-04-21T06:04:22.113Z,6.35
2024-04-21T06:06:52.126Z,6.51
2024-04-21T06:09:18.828Z,6.68
2024-04-21T06:11:45.456Z,6.50
2024-04-21T06:14:12.099Z,6.40
2024-04-21T06:16:38.715Z,6.52
2024-04-21T06:19:07.204Z,6.52
2024-04-21T06:21:33.866Z,6.56
2024-04-21T06:24:00.429Z,6.34
2024-04-21T06:26:27.056Z,6.40
2024-04-21T06:28:53.634Z,6.51
2024-04-21T06:31:20.532Z,6.77
2024-04-21T06:33:48.648Z,7.05
2024-04-21T06:36:15.322Z,6.96
2024-04-21T06:38:42.035Z,6.63
2024-04-21T06:41:08.972Z,6.39
2024-04-21T06:43:35.545Z,6.67
2024-04-21T06:46:02.157Z,6.59
2024-04-21T06:48:28.883Z,6.63
2024-04-21T06:50:55.471Z,6.49
2024-04-21T06:53:22.091Z,6.45
2024-04-21T06:55:49.152Z,6.52
2024-04-21T06:58:16.038Z,6.45
2024-04-21T07:00:42.832Z,6.63
2024-04-21T07:03:10.015Z,6.65
2024-04-21T07:05:37.948Z,6.60
2024-04-21T07:08:04.831Z,6.67
2024-04-21T07:10:31.493Z,6.55
2024-04-21T07:12:58.156Z,6.31
2024-04-21T07:15:24.827Z,5.89
2024-04-21T07:17:51.871Z,6.04
2024-04-21T07:20:22.245Z,6.24
2024-04-21T07:22:49.283Z,6.46
2024-04-21T07:25:22.484Z,6.79
2024-04-21T07:27:51.912Z,7.01
2024-04-21T07:30:18.618Z,7.70
2024-04-21T07:32:45.280Z,7.85
2024-04-21T07:35:11.840Z,7.53
2024-04-21T07:37:38.476Z,7.29
2024-04-21T07:40:06.100Z,7.37
2024-04-21T07:42:33.010Z,6.70
2024-04-21T07:44:59.658Z,7.03
2024-04-21T07:47:26.560Z,7.10
2024-04-21T07:49:53.155Z,6.94
2024-04-21T07:52:19.882Z,7.07
2024-04-21T07:54:46.512Z,6.91
2024-04-21T07:57:14.908Z,6.83
2024-04-21T07:59:41.610Z,6.78
2024-04-21T08:02:08.290Z,6.80
2024-04-21T08:04:34.914Z,7.11
2024-04-21T08:07:01.751Z,7.22
2024-04-21T08:09:30.976Z,7.43
2024-04-21T08:11:58.486Z,7.41
2024-04-21T08:14:25.234Z,7.68
2024-04-21T08:16:51.902Z,7.56
2024-04-21T08:19:18.461Z,7.68
2024-04-21T08:21:45.090Z,7.74
2024-04-21T08:24:11.673Z,7.78
2024-04-21T08:26:38.250Z,7.73
2024-04-21T08:29:04.812Z,7.71
2024-04-21T08:31:31.793Z,7.86
2024-04-21T08:33:59.932Z,8.00
2024-04-21T08:36:26.625Z,7.87
2024-04-21T08:38:53.230Z,7.82
2024-04-21T08:41:22.572Z,7.81
2024-04-21T08:43:50.104Z,7.80
2024-04-21T08:46:17.319Z,7.85
2024-04-21T08:48:44.383Z,7.79
2024-04-21T08:51:11.628Z,7.57
2024-04-21T08:53:41.435Z,7.52
2024-04-21T08:56:28.744Z,7.45
2024-04-21T08:58:55.744Z,7.32
2024-04-21T09:01:25.314Z,7.35
2024-04-21T09:03:52.325Z,7.25
2024-04-21T09:06:25.084Z,7.44
2024-04-21T09:08:52.746Z,7.30
2024-04-21T09:11:19.416Z,7.24
2024-04-21T09:13:45.988Z,7.03
2024-04-21T09:16:12.674Z,6.56
2024-04-21T09:18:39.377Z,6.32
2024-04-21T09:21:06.081Z,6.56
2024-04-21T09:23:33.916Z,6.41
2024-04-21T09:26:00.588Z,7.22
2024-04-21T09:28:27.244Z,7.44
2024-04-21T09:30:53.890Z,7.56
2024-04-21T09:33:21.735Z,8.20
2024-04-21T09:35:48.404Z,8.12
2024-04-21T09:38:16.358Z,8.05
2024-04-21T09:40:43.288Z,8.32
2024-04-21T09:43:10.083Z,8.69
2024-04-21T09:45:36.892Z,9.09
2024-04-21T09:48:06.671Z,9.62
2024-04-21T09:50:33.340Z,10.06
2024-04-21T09:53:02.159Z,10.10
2024-04-21T09:55:29.077Z,10.11
2024-04-21T09:58:02.671Z,9.78
2024-04-21T10:00:32.770Z,9.65
2024-04-21T10:03:02.286Z,9.28
2024-04-21T10:05:29.148Z,8.99
2024-04-21T10:07:58.521Z,8.79
2024-04-21T10:10:26.354Z,8.81
2024-04-21T10:12:56.105Z,8.72
2024-04-21T10:15:23.196Z,8.59
2024-04-21T10:17:57.482Z,8.45
2024-04-21T10:20:35.318Z,8.41
2024-04-21T10:23:03.210Z,8.38
2024-04-21T10:25:36.456Z,8.65
2024-04-21T10:28:10.697Z,8.78
2024-04-21T10:30:37.984Z,9.01
2024-04-21T10:33:11.291Z,9.40
2024-04-21T10:35:39.329Z,9.92
2024-04-21T10:38:06.861Z,9.96
2024-04-21T10:40:36.634Z,9.88
2024-04-21T10:43:03.751Z,9.62
2024-04-21T10:45:33.134Z,9.96
2024-04-21T10:48:00.738Z,9.98
2024-04-21T10:50:28.804Z,10.05
2024-04-21T10:52:55.820Z,9.59
2024-04-21T10:55:22.976Z,8.24
2024-04-21T10:57:50.244Z,7.42
2024-04-21T11:00:16.900Z,7.06
2024-04-21T11:02:43.637Z,6.76
2024-04-21T11:05:11.166Z,5.95
2024-04-21T11:07:37.961Z,6.37
2024-04-21T11:10:04.896Z,6.68
2024-04-21T11:12:33.476Z,7.04
2024-04-21T11:15:00.582Z,7.22
2024-04-21T11:17:27.708Z,7.38
2024-04-21T11:19:54.848Z,7.60
2024-04-21T11:22:22.192Z,7.93
2024-04-21T11:24:49.135Z,7.93
2024-04-21T11:27:17.963Z,8.36
2024-04-21T11:29:47.514Z,8.20
2024-04-21T11:32:15.155Z,8.60
2024-04-21T11:34:41.977Z,8.63
2024-04-21T11:37:20.828Z,8.85
2024-04-21T11:39:47.513Z,9.14
2024-04-21T11:42:14.077Z,9.41
2024-04-21T11:44:42.410Z,9.42
2024-04-21T11:47:09.059Z,9.24
2024-04-21T11:49:35.735Z,8.84
2024-04-21T11:52:02.451Z,8.80
2024-04-21T11:54:29.153Z,8.81
2024-04-21T11:56:56.131Z,9.04
2024-04-21T11:59:22.712Z,9.09
2024-04-21T12:01:50.566Z,9.62
2024-04-21T12:04:17.805Z,9.84
2024-04-21T12:06:44.703Z,9.81
2024-04-21T12:09:11.295Z,10.00
2024-04-21T12:11:38.088Z,9.76
2024-04-21T12:14:17.035Z,9.79
2024-04-21T12:16:43.774Z,9.58
2024-04-21T12:19:10.724Z,9.25
2024-04-21T12:21:37.388Z,9.39
2024-04-21T12:24:04.112Z,9.13
2024-04-21T12:26:30.652Z,8.82
2024-04-21T12:28:57.234Z,8.43
2024-04-21T12:31:24.138Z,8.58
2024-04-21T12:33:50.721Z,8.83
2024-04-21T12:36:17.325Z,8.99
2024-04-21T12:38:44.001Z,8.88
2024-04-21T12:41:10.824Z,8.88
2024-04-21T12:43:37.389Z,8.23
2024-04-21T12:46:04.276Z,8.04
2024-04-21T12:48:30.988Z,8.14
2024-04-21T12:50:57.643Z,8.66
2024-04-21T12:53:24.471Z,8.50
2024-04-21T12:55:51.018Z,8.46
2024-04-21T12:58:17.610Z,8.56
2024-04-21T13:00:44.270Z,9.02
2024-04-21T13:03:14.750Z,9.21
2024-04-21T13:05:41.724Z,9.37
2024-04-21T13:08:08.355Z,9.23
2024-04-21T13:10:35.079Z,9.21
2024-04-21T13:13:01.994Z,9.07
2024-04-21T13:15:28.613Z,8.66
2024-04-21T13:17:56.272Z,8.57
2024-04-21T13:20:23.141Z,8.58
2024-04-21T13:22:49.690Z,8.44
2024-04-21T13:25:16.327Z,8.75
2024-04-21T13:27:42.992Z,9.04
2024-04-21T13:30:10.375Z,9.25
2024-04-21T13:32:37.719Z,9.54
2024-04-21T13:35:04.807Z,9.69
2024-04-21T13:37:31.416Z,9.83
2024-04-21T13:39:58.001Z,9.66
2024-04-21T13:42:24.762Z,9.99
2024-04-21T13:44:51.330Z,9.48
2024-04-21T13:47:18.076Z,9.77
2024-04-21T13:49:44.931Z,9.70
2024-04-21T13:52:11.587Z,9.48
2024-04-21T13:54:38.575Z,9.05
2024-04-21T13:57:05.795Z,9.74
2024-04-21T13:59:33.210Z,10.05
2024-04-21T14:01:59.780Z,9.76
2024-04-21T14:04:27.294Z,10.01
2024-04-21T14:06:53.934Z,9.47
2024-04-21T14:09:20.470Z,9.64
2024-04-21T14:11:47.122Z,9.67
2024-04-21T14:14:13.673Z,9.74
2024-04-21T14:16:40.373Z,9.48
2024-04-21T14:19:07.171Z,9.46
2024-04-21T14:21:33.762Z,9.35
2024-04-21T14:24:02.270Z,9.24
2024-04-21T14:26:29.425Z,8.94
2024-04-21T14:28:56.026Z,9.01
2024-04-21T14:31:22.621Z,8.69
2024-04-21T14:33:50.128Z,8.77
2024-04-21T14:36:17.754Z,8.53
2024-04-21T14:38:44.563Z,8.22
2024-04-21T14:41:12.643Z,7.97
2024-04-21T14:43:39.331Z,7.69
2024-04-21T14:46:06.006Z,7.78
2024-04-21T14:48:32.592Z,8.15
2024-04-21T14:51:00.987Z,7.92
2024-04-21T14:53:27.882Z,8.01
2024-04-21T14:55:58.587Z,7.84
2024-04-21T14:58:25.402Z,8.29
2024-04-21T15:00:52.057Z,8.69
2024-04-21T15:03:18.673Z,8.51
2024-04-21T15:05:45.430Z,8.94
2024-04-21T15:08:12.088Z,8.93
2024-04-21T15:10:38.714Z,8.73
2024-04-21T15:13:05.299Z,8.59
2024-04-21T15:15:32.215Z,8.62
2024-04-21T15:18:00.305Z,8.34
2024-04-21T15:20:26.998Z,8.23
2024-04-21T15:22:53.614Z,8.14
2024-04-21T15:25:21.274Z,8.01
2024-04-21T15:27:50.361Z,7.94
2024-04-21T15:30:18.974Z,8.06
2024-04-21T15:32:47.522Z,8.42
2024-04-21T15:35:14.811Z,8.38
2024-04-21T15:37:42.992Z,8.33
2024-04-21T15:40:17.564Z,8.66
2024-04-21T15:42:44.286Z,8.57
2024-04-21T15:45:11.070Z,8.61
2024-04-21T15:47:38.116Z,8.68
2024-04-21T15:50:05.659Z,8.71
2024-04-21T15:52:32.587Z,8.79
2024-04-21T15:55:01.038Z,8.79
2024-04-21T15:57:28.847Z,8.66
2024-04-21T15:59:55.437Z,8.28
2024-04-21T16:02:22.014Z,8.37
2024-04-21T16:04:48.712Z,8.47
2024-04-21T16:07:15.341Z,8.54
2024-04-21T16:09:42.031Z,8.41
2024-04-21T16:12:09.003Z,8.53
2024-04-21T16:14:35.536Z,8.87
2024-04-21T16:17:02.195Z,8.51
2024-04-21T16:19:29.683Z,9.19
2024-04-21T16:21:56.367Z,9.38
2024-04-21T16:24:23.018Z,9.61
2024-04-21T16:26:49.575Z,9.51
2024-04-21T16:29:16.223Z,9.54
2024-04-21T16:31:43.087Z,9.50
2024-04-21T16:34:09.892Z,9.82
2024-04-21T16:36:36.782Z,10.01
2024-04-21T16:39:03.758Z,10.07
2024-04-21T16:41:30.581Z,10.13
2024-04-21T16:43:57.418Z,9.51
2024-04-21T16:46:24.995Z,9.36
2024-04-21T16:48:53.219Z,9.24
2024-04-21T16:51:20.043Z,9.24
2024-04-21T16:53:47.056Z,9.08
2024-04-21T16:56:14.466Z,8.99
2024-04-21T16:58:46.447Z,8.75
2024-04-21T17:01:14.891Z,8.61
2024-04-21T17:03:42.085Z,8.58
2024-04-21T17:06:11.200Z,8.47
2024-04-21T17:08:38.078Z,8.42
2024-04-21T17:11:04.938Z,8.53
2024-04-21T17:13:31.808Z,8.46
2024-04-21T17:15:58.541Z,8.69
2024-04-21T17:18:25.174Z,8.48
2024-04-21T17:20:51.778Z,8.36
2024-04-21T17:23:18.375Z,8.31
2024-04-21T17:25:44.959Z,8.23
2024-04-21T17:28:11.581Z,8.38
2024-04-21T17:30:38.397Z,8.36
2024-04-21T17:33:05.496Z,8.10
2024-04-21T17:35:32.171Z,8.20
2024-04-21T17:37:59.423Z,8.19
2024-04-21T17:40:27.855Z,7.94
2024-04-21T17:42:56.793Z,8.02
2024-04-21T17:45:38.991Z,7.86
2024-04-21T17:48:07.656Z,7.60
2024-04-21T17:50:34.857Z,7.38
2024-04-21T17:53:01.665Z,7.25
2024-04-21T17:55:28.591Z,6.97
2024-04-21T17:57:56.831Z,7.01
2024-04-21T18:00:23.453Z,6.75
2024-04-21T18:02:50.164Z,6.48
2024-04-21T18:05:17.104Z,6.72
2024-04-21T18:07:44.798Z,6.69
2024-04-21T18:10:12.400Z,6.70
2024-04-21T18:12:39.045Z,6.63
2024-04-21T18:15:05.902Z,6.60
2024-04-21T18:17:32.638Z,6.81
2024-04-21T18:19:59.248Z,6.85
2024-04-21T18:22:25.849Z,6.67
2024-04-21T18:24:52.433Z,6.79
2024-04-21T18:27:19.035Z,6.67
2024-04-21T18:29:45.641Z,6.64
2024-04-21T18:32:12.260Z,6.54
2024-04-21T18:34:38.859Z,6.72
2024-04-21T18:37:05.868Z,6.55
2024-04-21T18:39:32.537Z,6.55
2024-04-21T18:42:01.489Z,6.55
2024-04-21T18:44:28.198Z,6.35
2024-04-21T18:46:54.997Z,6.44
2024-04-21T18:49:22.257Z,6.64
2024-04-21T18:51:49.009Z,6.66
2024-04-21T18:54:15.572Z,6.62
2024-04-21T18:56:42.365Z,6.57
2024-04-21T18:59:08.958Z,6.41
2024-04-21T19:01:35.599Z,6.33
2024-04-21T19:04:02.289Z,6.41
2024-04-21T19:06:28.947Z,6.45
2024-04-21T19:08:55.509Z,6.34
2024-04-21T19:11:22.622Z,6.30
2024-04-21T19:13:49.656Z,6.37
2024-04-21T19:16:16.503Z,6.06
2024-04-21T19:18:43.489Z,6.20
2024-04-21T19:21:10.823Z,6.12
2024-04-21T19:23:38.685Z,5.87
2024-04-21T19:26:05.477Z,6.11
2024-04-21T19:28:34.201Z,6.01
2024-04-21T19:31:00.972Z,5.99
2024-04-21T19:33:27.642Z,6.03
2024-04-21T19:35:54.225Z,6.02
2024-04-21T19:38:20.789Z,6.01
2024-04-21T19:40:49.230Z,5.92
2024-04-21T19:43:17.330Z,5.76
2024-04-21T19:45:43.973Z,5.87
2024-04-21T19:48:11.496Z,5.83
2024-04-21T19:50:38.865Z,5.56
2024-04-21T19:53:05.500Z,5.60
2024-04-21T19:55:32.129Z,5.48
2024-04-21T19:57:58.960Z,5.45
2024-04-21T20:00:26.377Z,5.61
2024-04-21T20:02:52.988Z,5.46
2024-04-21T20:05:19.584Z,5.52
2024-04-21T20:07:46.174Z,5.54
2024-04-21T20:10:12.760Z,5.40
2024-04-21T20:12:39.821Z,5.32
2024-04-21T20:15:25.657Z,5.39
2024-04-21T20:18:11.065Z,5.42
2024-04-21T20:20:37.755Z,5.31
2024-04-21T20:23:04.473Z,5.22
2024-04-21T20:25:35.759Z,5.18
2024-04-21T20:28:02.468Z,5.26
2024-04-21T20:30:32.706Z,5.20
2024-04-21T20:32:59.570Z,5.25
2024-04-21T20:35:26.138Z,5.08
2024-04-21T20:37:55.410Z,5.15
2024-04-21T20:40:22.356Z,5.06
2024-04-21T20:42:48.938Z,5.07
2024-04-21T20:45:15.626Z,5.06
2024-04-21T20:47:42.424Z,5.11
2024-04-21T20:50:09.104Z,5.05
2024-04-21T20:52:35.897Z,5.06
2024-04-21T20:55:02.531Z,5.05
2024-04-21T20:57:31.549Z,5.02
2024-04-21T20:59:58.700Z,5.06
2024-04-21T21:02:25.418Z,5.01
2024-04-21T21:04:52.015Z,5.04
2024-04-21T21:07:18.630Z,4.91
2024-04-21T21:09:45.245Z,4.93
2024-04-21T21:12:11.829Z,4.95
2024-04-21T21:14:39.201Z,4.78
2024-04-21T21:17:05.829Z,4.77
2024-04-21T21:19:32.441Z,4.81
2024-04-21T21:21:59.394Z,4.79
2024-04-21T21:24:26.143Z,4.67
2024-04-21T21:26:53.306Z,4.56
2024-04-21T21:29:19.992Z,4.76
2024-04-21T21:31:46.750Z,4.72
2024-04-21T21:34:13.412Z,4.72
2024-04-21T21:36:39.976Z,4.70
2024-04-21T21:39:06.531Z,4.61
2024-04-21T21:41:33.084Z,4.60
2024-04-21T21:43:59.737Z,4.62
2024-04-21T21:46:27.699Z,4.54
2024-04-21T21:48:54.279Z,4.41
2024-04-21T21:51:21.133Z,4.42
2024-04-21T21:53:47.690Z,4.38
2024-04-21T21:56:14.257Z,4.44
2024-04-21T21:58:41.010Z,4.46
2024-04-21T22:01:08.210Z,4.46
2024-04-21T22:03:34.956Z,4.39
2024-04-21T22:06:01.578Z,4.35
2024-04-21T22:08:28.320Z,4.45
2024-04-21T22:10:55.042Z,4.45
2024-04-21T22:13:21.713Z,4.39
2024-04-21T22:15:48.367Z,4.29
2024-04-21T22:18:18.977Z,4.31
2024-04-21T22:20:46.514Z,4.13
2024-04-21T22:23:13.083Z,4.20
2024-04-21T22:25:45.605Z,4.17
2024-04-21T22:28:12.191Z,4.19
2024-04-21T22:30:38.773Z,4.18
2024-04-21T22:33:05.672Z,4.23
2024-04-21T22:35:32.480Z,4.22
2024-04-21T22:37:59.445Z,4.12
2024-04-21T22:40:26.084Z,4.05
2024-04-21T22:42:52.692Z,4.06
2024-04-21T22:45:19.361Z,4.11
2024-04-21T22:47:45.946Z,4.14
2024-04-21T22:50:12.654Z,3.96
2024-04-21T22:52:39.402Z,4.00
2024-04-21T22:55:06.436Z,4.09
2024-04-21T22:57:33.027Z,4.02
2024-04-21T22:59:59.757Z,3.98
2024-04-21T23:02:26.607Z,4.00
2024-04-21T23:04:54.163Z,4.06
2024-04-21T23:07:20.745Z,4.05
2024-04-21T23:09:47.392Z,3.97
2024-04-21T23:12:13.975Z,3.75
2024-04-21T23:14:40.564Z,3.73
2024-04-21T23:17:07.106Z,3.82
2024-04-21T23:19:33.725Z,3.84
2024-04-21T23:22:00.330Z,3.77
2024-04-21T23:24:26.944Z,3.75
2024-04-21T23:26:53.500Z,3.85
2024-04-21T23:29:20.108Z,3.92
2024-04-21T23:31:46.746Z,3.86
2024-04-21T23:34:13.403Z,3.75
2024-04-21T23:36:39.971Z,3.89
2024-04-21T23:39:06.616Z,3.85
2024-04-21T23:41:33.227Z,3.75
2024-04-21T23:43:59.810Z,3.82
2024-04-21T23:46:29.315Z,3.87
2024-04-21T23:48:55.871Z,3.87
2024-04-21T23:51:22.731Z,3.91
2024-04-21T23:53:49.288Z,3.74
2024-04-21T23:56:16.508Z,3.81
2024-04-21T23:58:43.416Z,3.66
